createdAt,value
2022-12-14T00:02:43.786Z,13.33
2022-12-14T00:05:46.299Z,11.00
2022-12-14T00:08:49.746Z,12.23
2022-12-14T00:11:51.745Z,10.80
2022-12-14T00:14:53.748Z,10.30
2022-12-14T00:17:55.856Z,8.95
2022-12-14T00:21:04.715Z,8.55
2022-12-14T00:24:07.679Z,9.05
2022-12-14T00:27:10.629Z,8.63
2022-12-14T00:30:14.469Z,11.82
2022-12-14T00:33:16.499Z,16.13
2022-12-14T00:36:19.464Z,15.02
2022-12-14T00:39:21.496Z,14.05
2022-12-14T00:42:23.480Z,11.45
2022-12-14T00:45:25.524Z,8.93
2022-12-14T00:48:28.241Z,10.77
2022-12-14T00:51:30.513Z,9.05
2022-12-14T00:54:32.540Z,10.93
2022-12-14T00:57:34.537Z,10.38
2022-12-14T01:00:36.806Z,9.57
2022-12-14T01:03:39.293Z,10.85
2022-12-14T01:06:41.418Z,9.40
2022-12-14T01:09:43.627Z,12.73
2022-12-14T01:12:45.813Z,9.13
2022-12-14T01:15:48.068Z,12.15
2022-12-14T01:18:50.264Z,12.55
2022-12-14T01:21:53.485Z,8.10
2022-12-14T01:24:55.573Z,5.20
2022-12-14T01:27:57.634Z,2.67
2022-12-14T01:31:14.964Z,3.83
2022-12-14T01:34:17.476Z,2.75
2022-12-14T01:37:19.516Z,3.13
2022-12-14T01:40:21.512Z,1.90
2022-12-14T01:43:23.799Z,4.30
2022-12-14T01:46:44.188Z,2.63
2022-12-14T01:50:19.488Z,2.20
2022-12-14T01:53:22.818Z,2.17
2022-12-14T01:56:25.843Z,2.28
2022-12-14T01:59:32.547Z,2.78
2022-12-14T02:02:38.588Z,1.02
2022-12-14T02:05:49.220Z,1.80
2022-12-14T02:08:53.353Z,2.75
2022-12-14T02:12:07.406Z,1.88
2022-12-14T02:15:10.659Z,2.25
2022-12-14T02:18:18.351Z,1.30
2022-12-14T02:21:29.635Z,2.67
2022-12-14T02:25:01.967Z,2.10
2022-12-14T02:28:10.751Z,2.72
2022-12-14T02:31:12.750Z,1.77
2022-12-14T02:34:23.668Z,1.85
2022-12-14T02:37:57.688Z,2.27
2022-12-14T02:41:38.583Z,1.90
2022-12-14T02:44:58.460Z,1.58
2022-12-14T02:48:33.092Z,1.83
2022-12-14T02:51:41.103Z,2.45
2022-12-14T02:54:56.271Z,2.53
2022-12-14T02:58:12.832Z,1.70
2022-12-14T03:01:18.919Z,2.73
2022-12-14T03:04:21.008Z,2.42
2022-12-14T03:07:48.765Z,4.00
2022-12-14T03:10:58.041Z,3.83
2022-12-14T03:14:08.275Z,7.60
2022-12-14T03:17:19.642Z,4.80
2022-12-14T03:20:25.919Z,7.05
2022-12-14T03:23:33.843Z,7.15
2022-12-14T03:26:56.828Z,7.87
2022-12-14T03:30:12.392Z,7.38
2022-12-14T03:33:19.341Z,8.63
2022-12-14T03:36:37.888Z,10.07
2022-12-14T03:39:42.600Z,8.93
2022-12-14T03:42:59.042Z,8.07
2022-12-14T03:46:35.726Z,6.73
2022-12-14T03:49:50.639Z,10.60
2022-12-14T03:53:08.017Z,9.57
2022-12-14T03:56:20.143Z,7.93
2022-12-14T03:59:35.185Z,7.03
2022-12-14T04:03:02.362Z,6.07
2022-12-14T04:06:08.601Z,6.22
2022-12-14T04:09:19.696Z,3.83
2022-12-14T04:13:03.582Z,5.38
2022-12-14T04:16:30.714Z,4.30
2022-12-14T04:19:49.303Z,6.27
2022-12-14T04:23:43.244Z,6.45
2022-12-14T04:26:52.733Z,8.17
2022-12-14T04:29:56.917Z,7.53
2022-12-14T04:33:31.023Z,6.93
2022-12-14T04:36:44.872Z,7.45
2022-12-14T04:39:55.179Z,6.95
2022-12-14T04:43:10.059Z,5.97
2022-12-14T04:49:36.047Z,6.57
2022-12-14T04:52:45.422Z,8.50
2022-12-14T04:56:01.452Z,7.10
2022-12-14T04:59:04.198Z,7.57
2022-12-14T05:02:22.019Z,6.15
2022-12-14T05:05:37.968Z,5.90
2022-12-14T05:08:43.099Z,7.13
2022-12-14T05:12:01.393Z,7.05
2022-12-14T05:15:37.849Z,7.97
2022-12-14T05:18:39.951Z,8.77
2022-12-14T05:21:47.814Z,9.10
2022-12-14T05:24:49.865Z,7.47
2022-12-14T05:27:52.472Z,8.48
2022-12-14T05:30:54.472Z,9.40
2022-12-14T05:33:56.496Z,10.88
2022-12-14T05:36:58.529Z,12.15
2022-12-14T05:40:00.650Z,9.30
2022-12-14T05:43:06.782Z,10.45
2022-12-14T05:46:11.948Z,9.73
2022-12-14T05:49:14.307Z,6.75
2022-12-14T05:52:16.674Z,6.93
2022-12-14T05:55:18.688Z,6.45
2022-12-14T05:58:20.704Z,8.57
2022-12-14T06:01:24.197Z,8.73
2022-12-14T06:04:26.486Z,7.28
2022-12-14T06:07:28.560Z,5.47
2022-12-14T06:10:30.855Z,6.20
2022-12-14T06:13:32.881Z,6.90
2022-12-14T06:16:35.765Z,8.10
2022-12-14T06:19:37.746Z,6.93
2022-12-14T06:22:45.850Z,7.87
2022-12-14T06:25:54.853Z,7.15
2022-12-14T06:28:58.076Z,8.18
2022-12-14T06:32:01.657Z,7.50
2022-12-14T06:35:04.028Z,7.67
2022-12-14T06:38:06.012Z,7.20
2022-12-14T06:41:09.093Z,8.23
2022-12-14T06:44:14.709Z,7.10
2022-12-14T06:47:17.895Z,9.53
2022-12-14T06:50:19.930Z,8.10
2022-12-14T06:53:21.933Z,8.15
2022-12-14T06:56:26.565Z,9.83
2022-12-14T06:59:28.655Z,7.32
2022-12-14T07:02:31.337Z,8.37
2022-12-14T07:05:33.900Z,6.77
2022-12-14T07:08:38.419Z,8.93
2022-12-14T07:14:43.835Z,8.55
2022-12-14T07:17:45.850Z,8.93
2022-12-14T07:21:10.095Z,6.90
2022-12-14T07:24:12.111Z,9.77
2022-12-14T07:27:14.329Z,8.07
2022-12-14T07:30:16.479Z,7.18
2022-12-14T07:33:18.449Z,6.93
2022-12-14T07:36:21.802Z,8.95
2022-12-14T07:39:23.838Z,8.38
2022-12-14T07:42:25.958Z,7.50
2022-12-14T07:45:27.936Z,8.50
2022-12-14T07:48:30.489Z,7.23
2022-12-14T07:51:36.342Z,8.60
2022-12-14T07:54:38.656Z,7.13
2022-12-14T07:57:40.647Z,8.47
2022-12-14T08:00:42.699Z,7.37
2022-12-14T08:03:47.576Z,9.93
2022-12-14T08:06:49.819Z,9.63
2022-12-14T08:09:51.876Z,7.47
2022-12-14T08:12:53.862Z,7.88
2022-12-14T08:15:57.035Z,4.97
2022-12-14T08:19:00.343Z,6.85
2022-12-14T08:22:02.500Z,7.28
2022-12-14T08:25:04.793Z,5.63
2022-12-14T08:28:07.016Z,6.28
2022-12-14T08:31:20.636Z,8.90
2022-12-14T08:34:23.055Z,9.20
2022-12-14T08:37:25.212Z,6.72
2022-12-14T08:40:27.325Z,7.22
2022-12-14T08:43:29.991Z,6.15
2022-12-14T08:46:34.528Z,6.20
2022-12-14T08:49:36.623Z,7.93
2022-12-14T08:52:38.913Z,5.07
2022-12-14T08:55:41.020Z,6.80
2022-12-14T08:58:44.988Z,7.72
2022-12-14T09:01:47.783Z,8.48
2022-12-14T09:04:49.989Z,6.18
2022-12-14T09:07:52.311Z,6.38
2022-12-14T09:10:54.727Z,5.25
2022-12-14T09:13:58.202Z,6.68
2022-12-14T09:17:01.336Z,5.43
2022-12-14T09:20:04.819Z,7.28
2022-12-14T09:23:06.907Z,6.32
2022-12-14T09:26:11.175Z,7.38
2022-12-14T09:29:18.174Z,7.50
2022-12-14T09:32:20.400Z,8.40
2022-12-14T09:35:22.689Z,8.05
2022-12-14T09:38:24.674Z,6.55
2022-12-14T09:41:35.540Z,9.02
2022-12-14T09:44:46.262Z,7.60
2022-12-14T09:47:56.991Z,8.73
2022-12-14T09:50:59.145Z,7.72
2022-12-14T09:54:08.492Z,8.35
2022-12-14T09:57:41.311Z,9.93
2022-12-14T10:01:17.355Z,7.85
2022-12-14T10:04:54.885Z,8.35
2022-12-14T10:08:11.657Z,7.13
2022-12-14T10:11:33.141Z,8.40
2022-12-14T10:15:13.931Z,7.72
2022-12-14T10:18:58.273Z,8.40
2022-12-14T10:22:14.056Z,6.68
2022-12-14T10:25:25.749Z,5.72
2022-12-14T10:29:01.474Z,5.57
2022-12-14T10:32:19.574Z,5.30
2022-12-14T10:35:34.526Z,5.23
2022-12-14T10:42:29.582Z,7.40
2022-12-14T10:45:56.781Z,5.73
2022-12-14T10:49:09.865Z,2.23
2022-12-14T10:52:18.824Z,1.30
2022-12-14T10:55:23.059Z,1.63
2022-12-14T10:58:25.075Z,1.13
2022-12-14T11:01:27.862Z,0.60
2022-12-14T11:04:56.481Z,1.47
2022-12-14T11:07:58.606Z,8.23
2022-12-14T11:11:25.750Z,4.13
2022-12-14T11:14:28.057Z,2.22
2022-12-14T11:17:39.252Z,1.40
2022-12-14T11:21:05.830Z,0.82
2022-12-14T11:24:20.531Z,1.05
2022-12-14T11:27:22.697Z,2.92
2022-12-14T11:30:24.970Z,1.77
2022-12-14T11:33:43.583Z,2.25
2022-12-14T11:36:46.813Z,2.65
2022-12-14T11:39:59.083Z,3.15
2022-12-14T11:43:04.731Z,3.55
2022-12-14T11:46:07.697Z,3.47
2022-12-14T11:49:37.916Z,5.50
2022-12-14T11:52:43.205Z,4.45
2022-12-14T11:55:54.464Z,4.45
2022-12-14T11:58:57.422Z,7.32
2022-12-14T12:02:15.560Z,5.82
2022-12-14T12:05:21.980Z,4.88
2022-12-14T12:08:30.298Z,4.50
2022-12-14T12:11:34.781Z,4.75
2022-12-14T12:14:38.944Z,5.57
2022-12-14T12:17:44.172Z,5.18
2022-12-14T12:20:58.709Z,5.07
2022-12-14T12:24:25.365Z,6.00
2022-12-14T12:27:28.724Z,5.82
2022-12-14T12:30:36.174Z,4.60
2022-12-14T12:33:50.460Z,7.75
2022-12-14T12:37:24.644Z,7.03
2022-12-14T12:40:33.313Z,5.88
2022-12-14T12:43:42.134Z,6.70
2022-12-14T12:47:38.493Z,5.97
2022-12-14T12:50:43.749Z,6.20
2022-12-14T12:54:01.128Z,6.80
2022-12-14T12:57:05.372Z,8.40
2022-12-14T13:00:08.148Z,8.40
2022-12-14T13:03:23.914Z,10.23
2022-12-14T13:06:34.827Z,6.93
2022-12-14T13:09:48.875Z,6.88
2022-12-14T13:12:55.591Z,6.30
2022-12-14T13:16:13.596Z,7.38
2022-12-14T13:19:52.194Z,6.05
2022-12-14T13:22:59.471Z,5.00
2022-12-14T13:26:41.237Z,7.00
2022-12-14T13:29:59.060Z,5.18
2022-12-14T13:33:19.373Z,7.38
2022-12-14T13:36:51.948Z,7.68
2022-12-14T13:40:19.606Z,6.13
2022-12-14T13:44:02.709Z,5.70
2022-12-14T13:47:13.699Z,4.28
2022-12-14T13:50:51.262Z,3.80
2022-12-14T13:54:03.004Z,4.65
2022-12-14T13:57:06.745Z,2.88
2022-12-14T14:00:47.560Z,4.40
2022-12-14T14:03:54.809Z,3.72
2022-12-14T14:07:23.306Z,3.28
2022-12-14T14:10:32.961Z,4.97
2022-12-14T14:13:38.762Z,4.38
2022-12-14T14:16:49.933Z,3.22
2022-12-14T14:20:33.425Z,3.17
2022-12-14T14:23:36.539Z,3.08
2022-12-14T14:26:57.264Z,3.60
2022-12-14T14:29:59.412Z,4.05
2022-12-14T14:33:36.280Z,4.70
2022-12-14T14:36:36.041Z,4.72
2022-12-14T14:39:56.596Z,2.97
2022-12-14T14:43:25.736Z,4.43
2022-12-14T14:46:38.779Z,4.70
2022-12-14T14:49:43.770Z,3.45
2022-12-14T14:52:57.725Z,5.32
2022-12-14T14:56:05.779Z,5.53
2022-12-14T14:59:19.999Z,3.30
2022-12-14T15:02:29.560Z,3.50
2022-12-14T15:05:44.093Z,3.58
2022-12-14T15:09:05.337Z,3.90
2022-12-14T15:12:37.938Z,4.53
2022-12-14T15:15:44.678Z,5.97
2022-12-14T15:18:47.103Z,4.18
2022-12-14T15:21:55.583Z,5.47
2022-12-14T15:25:01.925Z,7.05
2022-12-14T15:28:10.148Z,4.07
2022-12-14T15:31:12.234Z,4.60
2022-12-14T15:34:18.591Z,5.53
2022-12-14T15:37:28.640Z,4.15
2022-12-14T15:40:32.313Z,5.90
2022-12-14T15:43:34.387Z,7.28
2022-12-14T15:46:40.357Z,5.05
2022-12-14T15:49:42.404Z,5.47
2022-12-14T15:52:45.689Z,5.32
2022-12-14T15:56:00.191Z,4.75
2022-12-14T15:59:13.836Z,3.70
2022-12-14T16:02:23.693Z,4.53
2022-12-14T16:05:27.725Z,5.55
2022-12-14T16:08:32.444Z,5.28
2022-12-14T16:11:45.945Z,5.55
2022-12-14T16:14:58.783Z,4.70
2022-12-14T16:18:03.439Z,7.85
2022-12-14T16:21:05.848Z,4.88
2022-12-14T16:24:33.994Z,6.28
2022-12-14T16:27:41.109Z,6.05
2022-12-14T16:31:01.203Z,4.45
2022-12-14T16:34:23.658Z,5.00
2022-12-14T16:37:34.049Z,5.30
2022-12-14T16:40:39.737Z,7.45
2022-12-14T16:43:42.372Z,8.95
2022-12-14T16:47:04.829Z,7.90
2022-12-14T16:50:40.105Z,6.65
2022-12-14T16:53:52.207Z,7.03
2022-12-14T16:57:02.259Z,4.65
2022-12-14T17:00:20.012Z,4.25
2022-12-14T17:03:23.922Z,3.35
2022-12-14T17:06:39.417Z,4.10
2022-12-14T17:09:41.419Z,2.22
2022-12-14T17:12:46.583Z,4.73
2022-12-14T17:15:59.396Z,3.10
2022-12-14T17:19:04.932Z,3.20
2022-12-14T17:22:15.810Z,1.90
2022-12-14T17:25:18.209Z,3.07
2022-12-14T17:28:38.394Z,3.23
2022-12-14T17:31:44.659Z,3.00
2022-12-14T17:34:52.071Z,1.93
2022-12-14T17:37:54.207Z,2.57
2022-12-14T17:40:56.632Z,4.17
2022-12-14T17:43:58.711Z,3.63
2022-12-14T17:47:00.715Z,2.73
2022-12-14T17:50:02.767Z,3.30
2022-12-14T17:53:05.208Z,1.50
2022-12-14T17:56:07.332Z,2.13
2022-12-14T17:59:09.595Z,3.00
2022-12-14T18:02:24.201Z,1.93
2022-12-14T18:05:26.485Z,2.40
2022-12-14T18:08:28.578Z,5.20
2022-12-14T18:11:31.626Z,3.83
2022-12-14T18:14:34.553Z,3.47
2022-12-14T18:17:36.888Z,3.87
2022-12-14T18:20:41.517Z,4.63
2022-12-14T18:23:44.905Z,5.87
2022-12-14T18:26:50.321Z,4.63
2022-12-14T18:29:53.596Z,5.03
2022-12-14T18:32:56.927Z,6.50
2022-12-14T18:35:59.007Z,7.83
2022-12-14T18:39:01.306Z,5.60
2022-12-14T18:42:03.681Z,6.53
2022-12-14T18:45:07.183Z,6.43
2022-12-14T18:48:10.397Z,8.07
2022-12-14T18:51:23.359Z,7.97
2022-12-14T18:54:25.402Z,9.83
2022-12-14T18:57:27.457Z,6.27
2022-12-14T19:00:35.243Z,7.50
2022-12-14T19:03:37.546Z,9.37
2022-12-14T19:06:44.513Z,5.97
2022-12-14T19:09:47.461Z,7.00
2022-12-14T19:12:51.401Z,6.27
2022-12-14T19:15:54.826Z,6.50
2022-12-14T19:18:57.712Z,6.00
2022-12-14T19:22:00.692Z,8.03
2022-12-14T19:25:03.246Z,9.13
2022-12-14T19:28:32.032Z,6.87
2022-12-14T19:31:27.595Z,8.63
2022-12-14T19:34:29.745Z,7.63
2022-12-14T19:37:32.158Z,6.63
2022-12-14T19:40:34.222Z,5.37
2022-12-14T19:43:36.418Z,6.33
2022-12-14T19:46:38.538Z,5.83
2022-12-14T19:49:40.800Z,6.80
2022-12-14T19:52:43.615Z,5.23
2022-12-14T19:55:51.168Z,5.80
2022-12-14T19:58:56.334Z,6.73
2022-12-14T20:01:58.581Z,6.77
2022-12-14T20:05:00.655Z,8.30
2022-12-14T20:08:02.696Z,5.90
2022-12-14T20:11:09.849Z,5.87
2022-12-14T20:14:13.893Z,4.47
2022-12-14T20:17:16.093Z,4.97
2022-12-14T20:20:19.180Z,4.23
2022-12-14T20:23:22.215Z,4.30
2022-12-14T20:26:25.520Z,6.20
2022-12-14T20:29:27.899Z,4.00
2022-12-14T20:32:29.922Z,4.33
2022-12-14T20:35:33.642Z,4.37
2022-12-14T20:38:35.620Z,4.97
2022-12-14T20:41:37.657Z,5.93
2022-12-14T20:44:39.607Z,4.90
2022-12-14T20:47:41.662Z,5.27
2022-12-14T20:50:44.459Z,4.63
2022-12-14T20:53:52.623Z,7.20
2022-12-14T20:56:56.479Z,4.60
2022-12-14T20:59:59.591Z,4.77
2022-12-14T21:03:03.504Z,5.00
2022-12-14T21:06:06.784Z,4.85
2022-12-14T21:09:10.311Z,4.97
2022-12-14T21:12:21.444Z,4.87
2022-12-14T21:15:23.508Z,6.53
2022-12-14T21:18:25.553Z,3.47
2022-12-14T21:21:27.724Z,2.67
2022-12-14T21:25:02.567Z,4.27
2022-12-14T21:27:52.110Z,3.83
2022-12-14T21:30:54.192Z,3.07
2022-12-14T21:33:56.190Z,3.40
2022-12-14T21:36:58.292Z,3.13
2022-12-14T21:40:03.211Z,3.27
2022-12-14T21:43:05.522Z,3.50
2022-12-14T21:46:07.624Z,3.93
2022-12-14T21:49:10.175Z,3.30
2022-12-14T21:52:19.653Z,2.87
2022-12-14T21:55:21.668Z,4.77
2022-12-14T21:58:24.812Z,4.60
2022-12-14T22:01:28.482Z,4.37
2022-12-14T22:04:39.384Z,3.17
2022-12-14T22:07:42.805Z,4.10
2022-12-14T22:10:45.253Z,4.13
2022-12-14T22:13:47.412Z,4.37
2022-12-14T22:16:50.706Z,4.97
2022-12-14T22:19:55.272Z,5.10
2022-12-14T22:22:57.512Z,5.82
2022-12-14T22:25:59.893Z,6.17
2022-12-14T22:29:01.909Z,5.23
2022-12-14T22:32:04.153Z,4.13
2022-12-14T22:35:06.631Z,4.67
2022-12-14T22:38:08.787Z,4.43
2022-12-14T22:41:13.632Z,4.67
2022-12-14T22:44:15.679Z,5.00
2022-12-14T22:47:17.788Z,5.23
2022-12-14T22:50:20.671Z,4.37
2022-12-14T22:53:22.922Z,5.00
2022-12-14T22:56:34.901Z,5.27
2022-12-14T22:59:49.881Z,6.07
2022-12-14T23:02:52.311Z,5.70
2022-12-14T23:06:00.340Z,6.57
2022-12-14T23:09:23.771Z,6.50
2022-12-14T23:12:44.294Z,7.60
2022-12-14T23:16:04.678Z,6.87
2022-12-14T23:19:25.227Z,5.93
2022-12-14T23:22:45.757Z,7.87
2022-12-14T23:26:10.062Z,6.93
2022-12-14T23:29:31.364Z,6.47
2022-12-14T23:32:52.123Z,4.93
2022-12-14T23:36:13.094Z,6.07
2022-12-14T23:39:33.640Z,4.67
2022-12-14T23:42:53.870Z,6.83
2022-12-14T23:46:14.774Z,6.23
2022-12-14T23:49:35.632Z,5.80
2022-12-14T23:52:56.576Z,5.60
2022-12-14T23:56:18.464Z,5.33
2022-12-14T23:59:39.367Z,4.77
